Terminal Aerodrome Forecast
Issued by NWS

Home | Current Version | Previous Version | Text Only | Print | Product List | Glossary On
Versions: 1 2 3 4 5 6 7 8 9 10 11 12
309
FTUS46 KSGX 050520
TAFTRM
TAF
KTRM 050520Z 0506/0606 33012G22KT P6SM SCT200
     FM051200 33011KT P6SM SCT200
     FM051500 32015G25KT P6SM SCT200=

USA.gov is the U.S. government's official web portal to all federal, state and local government web resources and services.